Time;durP1;ratioP1;P1;durP2;ratioP2;P2;SDS_P1;SDS_P2;PMS_P1;PMS_P2;Temp;Humidity;BMP_temperature;BMP_pressure;BME280_temperature;BME280_humidity;BME280_pressure;Samples;Min_cycle;Max_cycle;Signal;HPM_P1;HPM_P2
2023/09/10 00:03:43;;;;;;;6.47;4.63;;;;;;;;;;10457631;27;20069;-66
2023/09/10 00:08:41;;;;;;;10.95;4.72;;;;;;;;;;10459651;27;20067;-66
2023/09/10 00:13:40;;;;;;;9.05;5.18;;;;;;;;;;10456901;27;20495;-66
2023/09/10 00:18:39;;;;;;;8.20;4.47;;;;;;;;;;10458465;27;20070;-66
2023/09/10 00:23:38;;;;;;;7.93;4.22;;;;;;;;;;10460222;27;20078;-66
2023/09/10 00:28:37;;;;;;;7.38;4.60;;;;;;;;;;10460732;27;20404;-66
2023/09/10 00:33:35;;;;;;;6.03;4.40;;;;;;;;;;10459375;27;20080;-66
2023/09/10 00:38:35;;;;;;;6.82;4.57;;;;;;;;;;10458955;27;20039;-66
2023/09/10 00:43:33;;;;;;;11.32;4.82;;;;;;;;;;10442140;27;20518;-66
2023/09/10 00:48:32;;;;;;;6.43;5.03;;;;;;;;;;10439081;27;20050;-66
2023/09/10 00:53:32;;;;;;;10.05;5.32;;;;;;;;;;10458001;27;20474;-65
2023/09/10 00:58:31;;;;;;;8.13;4.55;;;;;;;;;;10438235;27;20063;-65
2023/09/10 01:03:30;;;;;;;8.82;5.00;;;;;;;;;;10455528;27;20066;-66
2023/09/10 01:08:28;;;;;;;12.35;4.55;;;;;;;;;;10456685;27;20495;-66
2023/09/10 01:13:31;;;;;;;7.30;3.95;;;;;;;;;;10456718;27;20074;-66
2023/09/10 01:18:32;;;;;;;6.50;4.67;;;;;;;;;;10458788;27;20071;-64
2023/09/10 01:23:38;;;;;;;10.25;4.05;;;;;;;;;;10455721;27;20071;-66
2023/09/10 01:28:38;;;;;;;8.88;4.57;;;;;;;;;;10441800;27;20552;-66
2023/09/10 01:33:37;;;;;;;8.23;4.30;;;;;;;;;;10458350;27;20078;-66
2023/09/10 01:38:40;;;;;;;5.65;4.47;;;;;;;;;;10456057;27;20066;-66
2023/09/10 01:43:40;;;;;;;11.80;4.22;;;;;;;;;;10437880;27;20079;-66
2023/09/10 01:48:39;;;;;;;7.97;5.20;;;;;;;;;;10438098;27;20047;-65
2023/09/10 01:53:38;;;;;;;8.90;5.07;;;;;;;;;;10453818;27;20067;-66
2023/09/10 01:58:36;;;;;;;9.85;5.10;;;;;;;;;;10454766;27;20452;-65
2023/09/10 02:03:36;;;;;;;8.25;5.10;;;;;;;;;;10436871;27;20063;-66
2023/09/10 02:08:35;;;;;;;6.88;4.95;;;;;;;;;;10452557;27;20062;-65
2023/09/10 02:13:33;;;;;;;6.78;4.95;;;;;;;;;;10436591;27;20085;-66
2023/09/10 02:18:31;;;;;;;8.82;5.47;;;;;;;;;;10437085;27;20494;-66
2023/09/10 02:23:31;;;;;;;11.05;5.07;;;;;;;;;;10446234;27;20434;-67
2023/09/10 02:28:29;;;;;;;9.93;4.93;;;;;;;;;;10439180;27;20051;-67
2023/09/10 02:33:27;;;;;;;8.48;4.50;;;;;;;;;;10437677;27;20492;-66
2023/09/10 02:38:27;;;;;;;6.43;4.25;;;;;;;;;;10449691;27;20070;-66
2023/09/10 02:43:27;;;;;;;5.70;4.25;;;;;;;;;;10453049;27;20077;-66
2023/09/10 02:48:25;;;;;;;5.22;3.60;;;;;;;;;;10433553;27;20070;-67
2023/09/10 02:53:23;;;;;;;7.32;4.10;;;;;;;;;;10453656;27;20074;-66
2023/09/10 02:58:25;;;;;;;11.23;4.50;;;;;;;;;;10453004;27;20066;-66
2023/09/10 03:03:27;;;;;;;4.97;3.58;;;;;;;;;;10441743;27;20050;-66
2023/09/10 03:08:25;;;;;;;8.13;4.22;;;;;;;;;;10434718;27;20070;-66
2023/09/10 03:13:24;;;;;;;4.85;3.55;;;;;;;;;;10453533;27;20071;-66
2023/09/10 03:18:22;;;;;;;9.40;3.63;;;;;;;;;;10462877;27;20067;-66
2023/09/10 03:23:22;;;;;;;5.03;3.80;;;;;;;;;;10440139;27;20074;-66
2023/09/10 03:28:21;;;;;;;9.32;3.47;;;;;;;;;;10458717;27;20105;-66
2023/09/10 03:33:19;;;;;;;8.57;3.42;;;;;;;;;;10456934;27;20070;-65
2023/09/10 03:38:18;;;;;;;7.20;3.40;;;;;;;;;;10439488;27;20078;-66
2023/09/10 03:43:18;;;;;;;5.75;3.47;;;;;;;;;;10440053;27;20078;-66
2023/09/10 03:48:17;;;;;;;7.97;3.03;;;;;;;;;;10446363;27;20075;-66
2023/09/10 03:53:17;;;;;;;6.35;3.42;;;;;;;;;;10444567;27;20085;-66
2023/09/10 03:58:15;;;;;;;3.65;3.05;;;;;;;;;;10440760;27;20043;-64
2023/09/10 04:03:15;;;;;;;8.40;3.05;;;;;;;;;;10449898;27;20067;-67
2023/09/10 04:08:14;;;;;;;10.32;3.53;;;;;;;;;;10437335;27;20077;-66
2023/09/10 04:13:12;;;;;;;6.82;3.30;;;;;;;;;;10457223;27;20062;-66
2023/09/10 04:18:11;;;;;;;15.85;4.30;;;;;;;;;;10461966;27;20063;-66
2023/09/10 04:23:10;;;;;;;11.43;4.20;;;;;;;;;;10459003;27;20039;-65
2023/09/10 04:28:09;;;;;;;6.55;3.05;;;;;;;;;;10438256;27;20078;-65
2023/09/10 04:33:07;;;;;;;8.45;3.67;;;;;;;;;;10459248;27;20062;-65
2023/09/10 04:38:07;;;;;;;5.70;3.60;;;;;;;;;;10460565;27;20078;-65
2023/09/10 04:43:07;;;;;;;8.40;3.22;;;;;;;;;;10445384;27;20078;-67
2023/09/10 04:48:06;;;;;;;5.97;3.40;;;;;;;;;;10438937;27;20478;-64
2023/09/10 04:53:05;;;;;;;6.30;3.55;;;;;;;;;;10443213;27;20492;-64
2023/09/10 04:58:04;;;;;;;11.95;3.58;;;;;;;;;;10444417;27;20074;-63
2023/09/10 05:03:05;;;;;;;9.60;3.15;;;;;;;;;;10447246;27;20078;-65
2023/09/10 05:08:04;;;;;;;9.32;3.50;;;;;;;;;;10444330;27;20097;-65
2023/09/10 05:13:03;;;;;;;10.73;4.20;;;;;;;;;;10445350;27;20074;-65
2023/09/10 05:18:02;;;;;;;9.15;3.28;;;;;;;;;;10445530;27;20085;-65
2023/09/10 05:23:01;;;;;;;5.78;3.63;;;;;;;;;;10459951;27;20051;-65
2023/09/10 05:28:00;;;;;;;5.60;3.83;;;;;;;;;;10437786;27;20274;-65
2023/09/10 05:32:58;;;;;;;5.75;3.75;;;;;;;;;;10436005;27;20075;-65
2023/09/10 05:37:57;;;;;;;8.32;3.25;;;;;;;;;;10436130;27;20194;-65
2023/09/10 05:42:57;;;;;;;9.07;4.35;;;;;;;;;;10437174;27;20066;-66
2023/09/10 05:47:55;;;;;;;6.57;3.55;;;;;;;;;;10457767;27;20454;-67
2023/09/10 05:52:55;;;;;;;4.43;3.17;;;;;;;;;;10436267;27;20348;-66
2023/09/10 05:57:55;;;;;;;6.95;3.63;;;;;;;;;;10434175;27;20082;-66
2023/09/10 06:02:54;;;;;;;7.43;3.60;;;;;;;;;;10431836;27;20086;-66
2023/09/10 06:07:53;;;;;;;12.35;4.28;;;;;;;;;;10429837;27;20515;-66
2023/09/10 06:12:51;;;;;;;9.70;3.80;;;;;;;;;;10436768;27;20077;-65
2023/09/10 06:17:50;;;;;;;6.57;3.13;;;;;;;;;;10438236;27;20074;-65
2023/09/10 06:22:50;;;;;;;5.18;3.95;;;;;;;;;;10436067;27;20075;-65
2023/09/10 06:27:49;;;;;;;13.65;3.47;;;;;;;;;;10437557;27;20070;-65
2023/09/10 06:32:49;;;;;;;13.65;4.18;;;;;;;;;;10435838;27;20077;-65
2023/09/10 06:37:48;;;;;;;7.07;3.20;;;;;;;;;;10455674;27;20070;-65
2023/09/10 06:42:48;;;;;;;16.13;4.25;;;;;;;;;;10436260;27;20079;-65
2023/09/10 06:48:01;;;;;;;10.15;3.70;;;;;;;;;;10433363;27;20082;-64
2023/09/10 06:53:00;;;;;;;8.68;3.63;;;;;;;;;;10447738;27;20507;-65
2023/09/10 06:57:59;;;;;;;6.18;3.00;;;;;;;;;;10455840;27;20108;-66
2023/09/10 07:02:58;;;;;;;7.22;2.80;;;;;;;;;;10454687;27;20353;-64
2023/09/10 07:07:56;;;;;;;9.07;3.10;;;;;;;;;;10431953;27;20078;-65
2023/09/10 07:12:55;;;;;;;4.70;2.97;;;;;;;;;;10455112;27;20081;-65
2023/09/10 07:17:54;;;;;;;6.78;3.40;;;;;;;;;;10452933;27;20079;-66
2023/09/10 07:22:53;;;;;;;8.65;3.42;;;;;;;;;;10450376;27;20066;-65
2023/09/10 07:27:51;;;;;;;9.77;4.05;;;;;;;;;;10452539;27;20066;-65
2023/09/10 07:32:49;;;;;;;6.90;4.80;;;;;;;;;;10453172;27;20067;-65
2023/09/10 07:37:49;;;;;;;6.25;3.58;;;;;;;;;;10453793;27;20077;-65
2023/09/10 07:42:47;;;;;;;5.15;3.35;;;;;;;;;;10451101;27;20062;-64
2023/09/10 07:47:46;;;;;;;11.32;3.53;;;;;;;;;;10452957;27;20082;-66
2023/09/10 07:52:44;;;;;;;6.97;3.58;;;;;;;;;;10452430;27;20104;-65
2023/09/10 07:57:44;;;;;;;6.03;2.95;;;;;;;;;;10451710;27;20078;-66
2023/09/10 08:02:42;;;;;;;8.32;3.95;;;;;;;;;;10460651;27;20077;-65
2023/09/10 08:07:42;;;;;;;7.53;3.28;;;;;;;;;;10460553;27;20618;-65
2023/09/10 08:12:40;;;;;;;6.95;4.03;;;;;;;;;;10460240;27;20073;-64
2023/09/10 08:17:40;;;;;;;8.73;3.60;;;;;;;;;;10459118;27;20152;-66
2023/09/10 08:22:38;;;;;;;5.90;3.40;;;;;;;;;;10459704;27;20679;-66
2023/09/10 08:27:37;;;;;;;17.45;5.72;;;;;;;;;;10459042;27;20534;-65
2023/09/10 08:32:35;;;;;;;11.48;4.03;;;;;;;;;;10458081;27;20463;-65
2023/09/10 08:37:35;;;;;;;15.95;4.10;;;;;;;;;;10460644;27;20067;-66
2023/09/10 08:42:37;;;;;;;5.68;3.75;;;;;;;;;;10457496;27;20063;-66
2023/09/10 08:47:39;;;;;;;6.35;2.80;;;;;;;;;;10460063;27;20073;-65
2023/09/10 08:52:40;;;;;;;8.90;3.60;;;;;;;;;;10459584;27;20075;-65
2023/09/10 08:57:39;;;;;;;11.13;3.60;;;;;;;;;;10460283;27;20078;-65
2023/09/10 09:02:37;;;;;;;7.90;3.47;;;;;;;;;;10458378;27;20074;-65
2023/09/10 09:07:40;;;;;;;7.05;3.58;;;;;;;;;;10457832;27;20063;-65
2023/09/10 09:12:40;;;;;;;9.18;3.45;;;;;;;;;;10456294;27;21102;-66
2023/09/10 09:17:39;;;;;;;11.85;3.92;;;;;;;;;;10458820;27;20500;-65
2023/09/10 09:22:41;;;;;;;9.00;3.47;;;;;;;;;;10444890;27;20077;-67
2023/09/10 09:27:44;;;;;;;9.57;2.95;;;;;;;;;;10457824;27;20078;-67
2023/09/10 09:32:43;;;;;;;10.40;3.27;;;;;;;;;;10439192;27;20078;-67
2023/09/10 09:37:41;;;;;;;5.00;3.20;;;;;;;;;;10458862;27;20336;-66
2023/09/10 09:42:41;;;;;;;12.90;3.58;;;;;;;;;;10460528;27;20493;-67
2023/09/10 09:47:39;;;;;;;13.93;3.50;;;;;;;;;;10456684;27;20515;-66
2023/09/10 09:52:38;;;;;;;9.05;3.25;;;;;;;;;;10460306;27;20063;-67
2023/09/10 09:57:36;;;;;;;8.35;3.20;;;;;;;;;;10454976;27;20085;-67
2023/09/10 10:02:36;;;;;;;11.02;3.58;;;;;;;;;;10442403;27;20078;-67
2023/09/10 10:07:36;;;;;;;5.35;3.03;;;;;;;;;;10460095;27;20066;-67
2023/09/10 10:12:49;;;;;;;6.38;2.88;;;;;;;;;;10457166;27;20078;-68
2023/09/10 10:17:48;;;;;;;3.65;2.88;;;;;;;;;;10459264;27;20471;-68
2023/09/10 10:22:47;;;;;;;11.00;3.53;;;;;;;;;;10460480;27;20066;-68
2023/09/10 10:27:45;;;;;;;6.07;3.38;;;;;;;;;;10458394;27;20085;-67
2023/09/10 10:32:44;;;;;;;9.48;3.30;;;;;;;;;;10457395;27;20577;-68
2023/09/10 10:37:48;;;;;;;9.40;4.15;;;;;;;;;;10461799;27;20063;-66
2023/09/10 10:42:51;;;;;;;6.43;2.83;;;;;;;;;;10459298;27;20086;-67
2023/09/10 10:47:50;;;;;;;10.23;3.42;;;;;;;;;;10455570;27;20058;-67
2023/09/10 10:52:52;;;;;;;10.63;3.00;;;;;;;;;;10458063;27;20073;-67
2023/09/10 10:57:51;;;;;;;9.85;2.83;;;;;;;;;;10448644;27;20074;-66
2023/09/10 11:02:50;;;;;;;8.73;2.80;;;;;;;;;;10458357;27;20059;-67
2023/09/10 11:08:10;;;;;;;9.20;4.00;;;;;;;;;;10453494;27;20039;-65
2023/09/10 11:13:09;;;;;;;7.13;3.35;;;;;;;;;;10457730;27;20067;-68
2023/09/10 11:18:34;;;;;;;7.15;3.67;;;;;;;;;;10459715;27;20078;-68
2023/09/10 11:23:34;;;;;;;8.40;3.13;;;;;;;;;;10411967;27;20063;-68
2023/09/10 11:28:40;;;;;;;5.00;3.03;;;;;;;;;;10455831;27;20077;-66
2023/09/10 11:33:38;;;;;;;12.80;3.10;;;;;;;;;;10450539;27;20065;-66
2023/09/10 11:38:38;;;;;;;7.55;2.85;;;;;;;;;;10456216;27;20090;-65
2023/09/10 11:43:38;;;;;;;6.15;3.05;;;;;;;;;;10463614;27;20073;-66
2023/09/10 11:48:36;;;;;;;7.70;2.95;;;;;;;;;;10458503;27;20085;-66
2023/09/10 11:53:35;;;;;;;3.63;2.58;;;;;;;;;;10460362;27;20069;-67
2023/09/10 11:58:35;;;;;;;9.27;3.15;;;;;;;;;;10456415;27;20158;-66
2023/09/10 12:03:33;;;;;;;7.15;3.22;;;;;;;;;;10458499;27;20178;-66
2023/09/10 12:08:32;;;;;;;5.43;3.00;;;;;;;;;;10451379;27;20081;-67
2023/09/10 12:13:32;;;;;;;9.75;2.97;;;;;;;;;;10463002;27;20058;-64
2023/09/10 12:18:32;;;;;;;12.10;3.65;;;;;;;;;;10456531;27;20145;-65
2023/09/10 12:23:30;;;;;;;10.02;3.38;;;;;;;;;;10457971;27;20073;-67
2023/09/10 12:28:32;;;;;;;6.80;3.17;;;;;;;;;;10458682;27;20074;-64
2023/09/10 12:33:32;;;;;;;6.80;2.97;;;;;;;;;;10459244;27;20079;-66
2023/09/10 12:38:30;;;;;;;7.15;3.10;;;;;;;;;;10461036;27;20097;-67
2023/09/10 12:43:29;;;;;;;8.65;2.90;;;;;;;;;;10457263;27;20054;-66
2023/09/10 12:48:28;;;;;;;7.20;2.53;;;;;;;;;;10456724;27;20515;-66
2023/09/10 12:53:27;;;;;;;7.53;2.88;;;;;;;;;;10459949;27;20119;-66
2023/09/10 12:58:26;;;;;;;5.68;2.63;;;;;;;;;;10450741;27;20487;-67
2023/09/10 13:03:25;;;;;;;6.32;2.50;;;;;;;;;;10454484;27;20062;-68
2023/09/10 13:08:24;;;;;;;4.55;2.90;;;;;;;;;;10451742;27;20347;-68
2023/09/10 13:13:24;;;;;;;9.93;3.67;;;;;;;;;;10457107;27;20538;-67
2023/09/10 13:18:22;;;;;;;10.80;3.30;;;;;;;;;;10451946;27;20081;-67
2023/09/10 13:23:20;;;;;;;8.85;3.03;;;;;;;;;;10450067;27;20062;-67
2023/09/10 13:28:18;;;;;;;5.07;3.15;;;;;;;;;;10456640;27;20079;-66
2023/09/10 13:33:18;;;;;;;7.05;3.65;;;;;;;;;;10450169;27;20059;-66
2023/09/10 13:38:16;;;;;;;9.07;3.22;;;;;;;;;;10456779;27;20086;-67
2023/09/10 13:43:16;;;;;;;7.63;2.83;;;;;;;;;;10453133;27;20063;-67
2023/09/10 13:48:15;;;;;;;9.52;2.83;;;;;;;;;;10462316;27;20070;-67
2023/09/10 13:53:14;;;;;;;8.82;4.53;;;;;;;;;;10457433;27;20058;-67
2023/09/10 13:58:13;;;;;;;7.55;2.83;;;;;;;;;;10456455;27;20089;-66
2023/09/10 14:03:11;;;;;;;7.75;3.80;;;;;;;;;;10438146;27;20381;-66
2023/09/10 14:08:09;;;;;;;8.70;2.78;;;;;;;;;;10457473;27;20039;-66
2023/09/10 14:13:09;;;;;;;7.68;3.10;;;;;;;;;;10456181;27;20545;-67
2023/09/10 14:18:07;;;;;;;9.38;2.67;;;;;;;;;;10458642;27;20070;-68
2023/09/10 14:23:05;;;;;;;8.05;3.08;;;;;;;;;;10453520;27;20075;-66
2023/09/10 14:28:04;;;;;;;4.65;2.90;;;;;;;;;;10449542;27;20151;-66
2023/09/10 14:33:04;;;;;;;8.68;3.03;;;;;;;;;;10455468;27;20076;-66
2023/09/10 14:38:02;;;;;;;8.60;4.28;;;;;;;;;;10458856;27;20070;-69
2023/09/10 14:43:00;;;;;;;10.73;3.42;;;;;;;;;;10435682;27;20067;-67
2023/09/10 14:47:58;;;;;;;11.85;6.55;;;;;;;;;;10453883;27;20063;-66
2023/09/10 14:52:58;;;;;;;14.35;6.88;;;;;;;;;;10448754;27;20066;-66
2023/09/10 14:57:57;;;;;;;8.60;3.22;;;;;;;;;;10453753;27;20832;-64
2023/09/10 15:02:57;;;;;;;12.43;6.07;;;;;;;;;;10456435;27;20515;-66
2023/09/10 15:07:56;;;;;;;5.20;3.63;;;;;;;;;;10449438;27;20468;-65
2023/09/10 15:12:55;;;;;;;54.22;48.85;;;;;;;;;;10462146;27;20065;-67
2023/09/10 15:17:53;;;;;;;24.25;21.88;;;;;;;;;;10462950;27;20058;-67
2023/09/10 15:22:52;;;;;;;6.40;3.65;;;;;;;;;;10462789;27;20067;-66
2023/09/10 15:27:52;;;;;;;14.80;9.77;;;;;;;;;;10458751;27;20086;-67
2023/09/10 15:32:52;;;;;;;11.48;6.50;;;;;;;;;;10461722;27;20070;-68
2023/09/10 15:37:50;;;;;;;13.50;9.55;;;;;;;;;;10460414;27;20303;-67
2023/09/10 15:42:48;;;;;;;16.63;12.70;;;;;;;;;;10440485;27;20070;-65
2023/09/10 15:47:46;;;;;;;24.42;13.13;;;;;;;;;;10459309;27;20081;-66
2023/09/10 15:52:46;;;;;;;16.20;8.07;;;;;;;;;;10460295;27;20520;-66
2023/09/10 15:57:47;;;;;;;16.27;9.00;;;;;;;;;;10456416;27;20498;-67
2023/09/10 16:02:46;;;;;;;18.25;13.07;;;;;;;;;;10455922;27;20090;-66
2023/09/10 16:07:46;;;;;;;13.88;9.45;;;;;;;;;;10459549;27;20545;-65
2023/09/10 16:12:45;;;;;;;11.52;8.25;;;;;;;;;;10462620;27;20089;-66
2023/09/10 16:17:43;;;;;;;19.90;17.73;;;;;;;;;;10458062;27;20066;-67
2023/09/10 16:22:41;;;;;;;12.43;5.93;;;;;;;;;;10439820;27;20078;-67
2023/09/10 16:27:41;;;;;;;9.52;4.38;;;;;;;;;;10460010;27;20070;-67
2023/09/10 16:32:40;;;;;;;109.63;96.78;;;;;;;;;;10460888;27;20465;-67
2023/09/10 16:37:39;;;;;;;92.78;80.32;;;;;;;;;;10461878;27;20077;-65
2023/09/10 16:42:37;;;;;;;99.05;88.60;;;;;;;;;;10458866;27;20118;-65
2023/09/10 16:47:37;;;;;;;29.13;21.33;;;;;;;;;;10458561;27;20062;-66
2023/09/10 16:52:39;;;;;;;21.40;17.70;;;;;;;;;;10465277;27;20063;-66
2023/09/10 16:57:38;;;;;;;87.80;77.88;;;;;;;;;;10459877;27;20071;-65
2023/09/10 17:02:37;;;;;;;58.08;51.75;;;;;;;;;;10458351;27;20085;-65
2023/09/10 17:07:36;;;;;;;36.97;31.48;;;;;;;;;;10455666;27;20062;-66
2023/09/10 17:12:35;;;;;;;53.00;47.33;;;;;;;;;;10462272;27;20062;-66
2023/09/10 17:17:37;;;;;;;22.63;20.13;;;;;;;;;;10439410;27;20519;-67
2023/09/10 17:22:37;;;;;;;26.90;22.37;;;;;;;;;;10453034;27;20070;-66
2023/09/10 17:27:36;;;;;;;10.88;6.10;;;;;;;;;;10449715;27;20074;-63
2023/09/10 17:32:34;;;;;;;3.65;2.90;;;;;;;;;;10452225;27;20063;-62
2023/09/10 17:37:35;;;;;;;7.13;2.90;;;;;;;;;;10451288;27;20518;-62
2023/09/10 17:42:34;;;;;;;6.07;3.15;;;;;;;;;;10456850;27;20074;-63
2023/09/10 17:47:34;;;;;;;6.05;2.70;;;;;;;;;;10456176;27;20086;-61
2023/09/10 17:52:32;;;;;;;8.48;2.47;;;;;;;;;;10451248;27;20070;-62
2023/09/10 17:57:30;;;;;;;6.32;2.70;;;;;;;;;;10453224;27;20069;-61
2023/09/10 18:02:33;;;;;;;5.50;2.10;;;;;;;;;;10452434;27;20082;-63
2023/09/10 18:07:32;;;;;;;7.63;2.92;;;;;;;;;;10458393;27;20066;-64
2023/09/10 18:12:30;;;;;;;6.72;3.00;;;;;;;;;;10450165;27;20078;-63
2023/09/10 18:17:29;;;;;;;6.57;2.88;;;;;;;;;;10453238;27;20054;-64
2023/09/10 18:22:29;;;;;;;5.63;2.38;;;;;;;;;;10452660;27;20081;-63
2023/09/10 18:27:27;;;;;;;4.03;2.45;;;;;;;;;;10454890;27;20066;-63
2023/09/10 18:32:26;;;;;;;8.70;3.00;;;;;;;;;;10450460;27;20522;-62
2023/09/10 18:37:24;;;;;;;4.38;2.80;;;;;;;;;;10454724;27;20345;-63
2023/09/10 18:42:24;;;;;;;5.32;2.97;;;;;;;;;;10455561;27;20067;-62
2023/09/10 18:47:22;;;;;;;5.15;2.13;;;;;;;;;;10451799;27;20558;-63
2023/09/10 18:52:20;;;;;;;4.43;2.72;;;;;;;;;;10453728;27;20067;-62
2023/09/10 18:57:19;;;;;;;5.25;3.03;;;;;;;;;;10450308;27;20085;-63
2023/09/10 19:02:18;;;;;;;10.30;2.58;;;;;;;;;;10452001;27;20444;-63
2023/09/10 19:07:16;;;;;;;4.32;2.25;;;;;;;;;;10447767;27;20078;-63
2023/09/10 19:12:15;;;;;;;7.03;2.53;;;;;;;;;;10451409;27;20353;-63
2023/09/10 19:17:13;;;;;;;5.93;2.13;;;;;;;;;;10448694;27;20070;-63
2023/09/10 19:22:13;;;;;;;4.88;2.40;;;;;;;;;;10451104;27;20093;-63
2023/09/10 19:27:12;;;;;;;8.77;2.65;;;;;;;;;;10450167;27;20079;-62
2023/09/10 19:32:10;;;;;;;4.63;2.35;;;;;;;;;;10453705;27;20085;-63
2023/09/10 19:37:09;;;;;;;3.90;2.45;;;;;;;;;;10449478;27;20069;-63
2023/09/10 19:42:08;;;;;;;6.93;1.90;;;;;;;;;;10453276;27;20066;-63
2023/09/10 19:47:06;;;;;;;5.13;2.10;;;;;;;;;;10451691;27;20498;-62
2023/09/10 19:52:05;;;;;;;9.95;2.05;;;;;;;;;;10453950;27;20058;-62
2023/09/10 19:57:04;;;;;;;6.20;1.95;;;;;;;;;;10452477;27;20066;-63
2023/09/10 20:02:04;;;;;;;6.00;2.50;;;;;;;;;;10449049;27;20078;-62
2023/09/10 20:07:03;;;;;;;3.70;2.00;;;;;;;;;;10455171;27;20081;-63
2023/09/10 20:12:01;;;;;;;9.27;2.20;;;;;;;;;;10460196;27;20089;-62
2023/09/10 20:17:03;;;;;;;3.60;1.90;;;;;;;;;;10452684;27;20538;-62
2023/09/10 20:22:02;;;;;;;2.15;1.55;;;;;;;;;;10458193;27;20070;-62
2023/09/10 20:27:00;;;;;;;3.58;1.95;;;;;;;;;;10459492;27;20089;-61
2023/09/10 20:31:58;;;;;;;6.05;2.17;;;;;;;;;;10453245;27;20116;-64
2023/09/10 20:36:58;;;;;;;5.13;2.40;;;;;;;;;;10459338;27;20065;-63
2023/09/10 20:41:57;;;;;;;8.50;2.55;;;;;;;;;;10458887;27;20456;-64
2023/09/10 20:46:55;;;;;;;6.90;2.50;;;;;;;;;;10456535;27;20081;-63
2023/09/10 20:51:55;;;;;;;2.88;1.50;;;;;;;;;;10462832;27;20093;-63
2023/09/10 20:56:54;;;;;;;3.60;1.95;;;;;;;;;;10458061;27;20040;-64
2023/09/10 21:01:52;;;;;;;5.95;2.90;;;;;;;;;;10460925;27;20073;-61
2023/09/10 21:06:51;;;;;;;3.13;1.75;;;;;;;;;;10455012;27;20077;-63
2023/09/10 21:11:49;;;;;;;3.67;1.80;;;;;;;;;;10451011;27;20100;-62
2023/09/10 21:16:49;;;;;;;8.27;2.00;;;;;;;;;;10452436;27;20062;-65
2023/09/10 21:21:47;;;;;;;4.85;1.40;;;;;;;;;;10449889;27;20071;-61
2023/09/10 21:26:45;;;;;;;4.22;1.70;;;;;;;;;;10454723;27;20070;-61
2023/09/10 21:31:44;;;;;;;5.43;1.70;;;;;;;;;;10458283;27;20077;-61
2023/09/10 21:36:43;;;;;;;5.65;1.80;;;;;;;;;;10454197;27;20058;-61
2023/09/10 21:41:41;;;;;;;4.10;1.70;;;;;;;;;;10452028;27;20070;-61
2023/09/10 21:46:40;;;;;;;2.80;1.88;;;;;;;;;;10461596;27;20074;-61
2023/09/10 21:51:38;;;;;;;4.60;1.40;;;;;;;;;;10456453;27;20055;-62
2023/09/10 21:56:37;;;;;;;3.83;1.67;;;;;;;;;;10457440;27;20065;-62
2023/09/10 22:01:36;;;;;;;1.98;1.30;;;;;;;;;;10458519;27;20115;-62
2023/09/10 22:06:34;;;;;;;4.13;1.80;;;;;;;;;;10458197;27;20066;-62
2023/09/10 22:11:33;;;;;;;2.15;1.20;;;;;;;;;;10453436;27;20085;-62
2023/09/10 22:16:33;;;;;;;2.60;1.83;;;;;;;;;;10442684;27;20078;-60
2023/09/10 22:21:31;;;;;;;4.75;1.35;;;;;;;;;;10461466;27;20075;-61
2023/09/10 22:26:30;;;;;;;3.10;1.60;;;;;;;;;;10457550;27;20066;-62
2023/09/10 22:31:28;;;;;;;3.38;1.40;;;;;;;;;;10452963;27;20073;-61
2023/09/10 22:36:27;;;;;;;2.75;1.50;;;;;;;;;;10454839;27;20468;-62
2023/09/10 22:41:31;;;;;;;3.05;1.40;;;;;;;;;;10453987;27;20071;-61
2023/09/10 22:46:30;;;;;;;1.80;1.33;;;;;;;;;;10453158;27;20071;-61
2023/09/10 22:51:30;;;;;;;3.33;1.65;;;;;;;;;;10452341;27;20079;-63
2023/09/10 22:56:28;;;;;;;2.50;1.55;;;;;;;;;;10450616;27;20508;-63
2023/09/10 23:01:26;;;;;;;3.80;1.30;;;;;;;;;;10450272;27;20512;-62
2023/09/10 23:06:25;;;;;;;2.45;1.38;;;;;;;;;;10452831;27;20074;-61
2023/09/10 23:11:24;;;;;;;2.55;1.60;;;;;;;;;;10450955;27;20067;-62
2023/09/10 23:16:22;;;;;;;4.82;1.45;;;;;;;;;;10450835;27;20071;-62
2023/09/10 23:21:21;;;;;;;4.13;1.70;;;;;;;;;;10450831;27;20473;-62
2023/09/10 23:26:19;;;;;;;5.88;1.45;;;;;;;;;;10447778;27;20070;-62
2023/09/10 23:31:19;;;;;;;3.20;1.40;;;;;;;;;;10453950;27;20527;-62
2023/09/10 23:36:17;;;;;;;2.08;1.30;;;;;;;;;;10458243;27;20411;-62
2023/09/10 23:41:15;;;;;;;3.58;1.58;;;;;;;;;;10459589;27;20066;-62
2023/09/10 23:46:14;;;;;;;1.92;1.20;;;;;;;;;;10456200;27;20467;-62
2023/09/10 23:51:13;;;;;;;5.25;1.50;;;;;;;;;;10461149;27;20077;-61
2023/09/10 23:56:11;;;;;;;3.83;1.67;;;;;;;;;;10463335;27;20070;-61
